createdAt,value
2018-11-23T00:02:22.070Z,79.00
2018-11-23T00:06:18.711Z,79.30
2018-11-23T00:10:17.510Z,78.80
2018-11-23T00:14:14.018Z,78.90
2018-11-23T00:18:10.504Z,79.10
2018-11-23T00:22:07.272Z,79.50
2018-11-23T00:26:03.957Z,79.60
2018-11-23T00:30:00.557Z,79.90
2018-11-23T00:33:57.809Z,80.30
2018-11-23T00:37:55.307Z,80.50
2018-11-23T00:41:52.113Z,80.50
2018-11-23T00:45:48.999Z,80.90
2018-11-23T00:49:45.741Z,81.00
2018-11-23T00:53:42.415Z,81.00
2018-11-23T00:57:39.293Z,81.20
2018-11-23T01:01:41.294Z,81.20
2018-11-23T01:05:38.044Z,81.20
2018-11-23T01:09:35.234Z,81.10
2018-11-23T01:13:31.952Z,81.30
2018-11-23T01:17:29.053Z,81.20
2018-11-23T01:21:25.858Z,81.20
2018-11-23T01:25:23.750Z,81.30
2018-11-23T01:29:20.425Z,81.30
2018-11-23T01:33:17.242Z,81.50
2018-11-23T01:37:14.002Z,81.70
2018-11-23T01:41:10.751Z,81.80
2018-11-23T01:45:09.349Z,81.50
2018-11-23T01:49:05.887Z,81.80
2018-11-23T01:53:02.531Z,81.70
2018-11-23T01:56:59.314Z,81.80
2018-11-23T02:00:56.214Z,81.70
2018-11-23T02:04:53.126Z,81.90
2018-11-23T02:08:50.358Z,81.90
2018-11-23T02:12:47.053Z,81.90
2018-11-23T02:16:43.857Z,81.90
2018-11-23T02:20:40.937Z,82.10
2018-11-23T02:24:37.677Z,82.20
2018-11-23T02:28:39.714Z,82.20
2018-11-23T02:32:36.579Z,82.40
2018-11-23T02:36:33.214Z,82.50
2018-11-23T02:40:30.087Z,82.50
2018-11-23T02:44:26.846Z,82.30
2018-11-23T02:48:23.672Z,82.50
2018-11-23T02:52:20.328Z,82.40
2018-11-23T02:56:17.223Z,82.50
2018-11-23T03:00:17.726Z,82.60
2018-11-23T03:04:14.487Z,82.70
2018-11-23T03:08:11.272Z,82.70
2018-11-23T03:12:08.108Z,82.90
2018-11-23T03:16:04.834Z,82.80
2018-11-23T03:20:01.692Z,82.90
2018-11-23T03:23:59.167Z,83.00
2018-11-23T03:27:56.090Z,83.00
2018-11-23T03:31:54.122Z,83.10
2018-11-23T03:35:51.811Z,83.00
2018-11-23T03:39:48.925Z,83.70
2018-11-23T03:43:45.743Z,83.20
2018-11-23T03:47:43.905Z,83.30
2018-11-23T03:51:40.614Z,83.20
2018-11-23T03:55:37.211Z,83.30
2018-11-23T03:59:33.897Z,83.40
2018-11-23T04:03:31.116Z,83.40
2018-11-23T04:07:27.435Z,83.50
2018-11-23T04:11:24.085Z,83.60
2018-11-23T04:15:20.761Z,83.70
2018-11-23T04:19:17.850Z,83.70
2018-11-23T04:23:14.782Z,83.80
2018-11-23T04:27:11.381Z,83.90
2018-11-23T04:31:12.654Z,84.50
2018-11-23T04:35:12.498Z,83.90
2018-11-23T04:39:10.048Z,84.50
2018-11-23T04:43:07.639Z,84.10
2018-11-23T04:47:04.885Z,84.10
2018-11-23T04:51:03.470Z,84.00
2018-11-23T04:55:00.237Z,83.90
2018-11-23T04:58:57.996Z,84.10
2018-11-23T05:02:54.621Z,84.60
2018-11-23T05:07:00.448Z,84.20
2018-11-23T05:10:57.157Z,84.10
2018-11-23T05:14:54.015Z,84.10
2018-11-23T05:18:50.846Z,84.30
2018-11-23T05:22:47.697Z,84.20
2018-11-23T05:26:44.813Z,84.10
2018-11-23T05:30:41.596Z,84.10
2018-11-23T05:34:38.641Z,84.20
2018-11-23T05:38:35.291Z,84.30
2018-11-23T05:42:31.810Z,84.30
2018-11-23T05:46:28.494Z,84.40
2018-11-23T05:50:26.936Z,84.50
2018-11-23T05:54:23.515Z,84.40
2018-11-23T05:58:20.115Z,84.50
2018-11-23T06:02:18.331Z,83.80
2018-11-23T06:06:14.941Z,82.70
2018-11-23T06:10:14.528Z,82.40
2018-11-23T06:14:11.325Z,82.20
2018-11-23T06:18:07.991Z,82.00
2018-11-23T06:22:04.837Z,83.70
2018-11-23T06:26:12.808Z,83.60
2018-11-23T06:30:12.250Z,83.70
2018-11-23T06:34:09.076Z,83.70
2018-11-23T06:38:05.984Z,83.50
2018-11-23T06:42:06.729Z,83.60
2018-11-23T06:46:05.105Z,83.80
2018-11-23T06:50:01.851Z,83.80
2018-11-23T06:54:00.586Z,83.70
2018-11-23T06:57:57.287Z,83.90
2018-11-23T07:01:54.346Z,84.00
2018-11-23T07:05:51.092Z,83.50
2018-11-23T07:09:48.334Z,83.40
2018-11-23T07:13:45.190Z,83.50
2018-11-23T07:17:42.830Z,83.80
2018-11-23T07:21:39.509Z,83.30
2018-11-23T07:25:36.496Z,83.30
2018-11-23T07:29:33.522Z,83.30
2018-11-23T07:33:30.584Z,83.30
2018-11-23T07:37:27.620Z,83.20
2018-11-23T07:41:41.065Z,82.90
2018-11-23T07:45:37.866Z,83.10
2018-11-23T07:49:35.789Z,82.90
2018-11-23T07:53:32.467Z,83.00
2018-11-23T07:57:29.209Z,83.00
2018-11-23T08:01:26.303Z,82.90
2018-11-23T08:05:23.185Z,82.80
2018-11-23T08:09:20.160Z,82.80
2018-11-23T08:13:17.186Z,82.70
2018-11-23T08:17:13.983Z,82.70
2018-11-23T08:21:11.204Z,82.60
2018-11-23T08:25:09.734Z,82.60
2018-11-23T08:29:06.682Z,82.70
2018-11-23T08:33:04.429Z,82.70
2018-11-23T08:37:01.090Z,82.70
2018-11-23T08:40:57.669Z,82.70
2018-11-23T08:44:54.811Z,82.60
2018-11-23T08:48:51.698Z,82.50
2018-11-23T08:52:48.317Z,82.50
2018-11-23T08:56:44.976Z,82.30
2018-11-23T09:00:42.937Z,82.30
2018-11-23T09:04:39.769Z,82.20
2018-11-23T09:08:38.281Z,82.30
2018-11-23T09:12:34.837Z,82.10
2018-11-23T09:16:32.077Z,81.90
2018-11-23T09:20:29.182Z,82.00
2018-11-23T09:24:26.562Z,81.90
2018-11-23T09:28:23.405Z,82.00
2018-11-23T09:32:20.293Z,82.00
2018-11-23T09:36:17.150Z,81.90
2018-11-23T09:40:16.213Z,82.10
2018-11-23T09:44:13.861Z,81.80
2018-11-23T09:48:10.659Z,81.60
2018-11-23T09:52:07.664Z,81.40
2018-11-23T09:56:04.748Z,81.30
2018-11-23T10:00:01.776Z,81.30
2018-11-23T10:03:58.632Z,81.30
2018-11-23T10:07:56.817Z,81.30
2018-11-23T10:11:53.648Z,81.30
2018-11-23T10:15:50.986Z,81.40
2018-11-23T10:19:47.854Z,81.40
2018-11-23T10:23:44.887Z,81.30
2018-11-23T10:27:42.339Z,81.30
2018-11-23T10:31:39.361Z,81.20
2018-11-23T10:35:36.272Z,81.10
2018-11-23T10:39:34.154Z,81.10
2018-11-23T10:43:32.003Z,81.00
2018-11-23T10:47:28.795Z,81.10
2018-11-23T10:51:25.512Z,81.20
2018-11-23T10:55:24.253Z,81.30
2018-11-23T10:59:20.967Z,81.60
2018-11-23T11:03:34.139Z,81.60
2018-11-23T11:07:31.343Z,81.30
2018-11-23T11:11:28.319Z,81.10
2018-11-23T11:15:25.229Z,81.00
2018-11-23T11:19:21.979Z,81.00
2018-11-23T11:23:18.995Z,80.90
2018-11-23T11:27:15.934Z,80.70
2018-11-23T11:31:12.806Z,80.70
2018-11-23T11:35:10.759Z,80.80
2018-11-23T11:39:12.090Z,80.90
2018-11-23T11:43:08.945Z,81.00
2018-11-23T11:47:06.709Z,81.00
2018-11-23T11:51:04.124Z,80.80
2018-11-23T11:55:01.772Z,80.80
2018-11-23T11:58:58.524Z,80.60
2018-11-23T12:02:55.820Z,80.70
2018-11-23T12:06:55.700Z,80.70
2018-11-23T12:10:52.760Z,80.90
2018-11-23T12:14:49.522Z,80.80
2018-11-23T12:18:46.298Z,80.80
2018-11-23T12:22:43.333Z,80.80
2018-11-23T12:33:05.212Z,80.70
2018-11-23T12:37:02.612Z,80.90
2018-11-23T12:40:59.092Z,80.90
2018-11-23T12:44:56.220Z,80.80
2018-11-23T12:48:52.926Z,80.80
2018-11-23T12:52:49.724Z,80.70
2018-11-23T12:56:46.835Z,80.60
2018-11-23T13:00:43.567Z,80.70
2018-11-23T13:04:40.427Z,80.70
2018-11-23T13:08:37.204Z,80.60
2018-11-23T13:12:33.949Z,80.70
2018-11-23T13:16:30.287Z,80.50
2018-11-23T13:20:26.925Z,80.60
2018-11-23T13:24:25.064Z,81.10
2018-11-23T13:28:22.226Z,80.50
2018-11-23T13:32:19.045Z,80.50
2018-11-23T13:36:15.912Z,80.50
2018-11-23T13:40:15.505Z,80.40
2018-11-23T13:44:12.238Z,80.40
2018-11-23T13:48:08.834Z,80.50
2018-11-23T13:52:05.188Z,80.50
2018-11-23T13:56:02.780Z,80.50
2018-11-23T13:59:59.501Z,80.50
2018-11-23T14:03:56.330Z,80.40
2018-11-23T14:07:54.407Z,80.40
2018-11-23T14:11:52.082Z,80.40
2018-11-23T14:15:48.712Z,80.40
2018-11-23T14:19:45.578Z,80.50
2018-11-23T14:23:42.717Z,80.40
2018-11-23T14:27:39.354Z,80.50
2018-11-23T14:31:35.979Z,80.50
2018-11-23T14:35:33.972Z,80.40
2018-11-23T14:39:31.266Z,80.50
2018-11-23T14:43:27.881Z,80.50
2018-11-23T14:47:24.865Z,80.50
2018-11-23T14:51:21.701Z,80.50
2018-11-23T14:55:18.619Z,80.40
2018-11-23T14:59:15.712Z,80.40
2018-11-23T15:03:12.483Z,80.30
2018-11-23T15:07:09.519Z,80.50
2018-11-23T15:11:07.553Z,80.60
2018-11-23T15:15:04.462Z,80.60
2018-11-23T15:19:01.685Z,80.70
2018-11-23T15:23:01.819Z,80.60
2018-11-23T15:26:58.727Z,80.80
2018-11-23T15:30:56.806Z,80.80
2018-11-23T15:34:53.606Z,80.60
2018-11-23T15:38:50.395Z,80.60
2018-11-23T15:42:47.848Z,80.70
2018-11-23T15:46:44.901Z,80.70
2018-11-23T15:50:42.603Z,80.80
2018-11-23T15:54:39.548Z,80.70
2018-11-23T15:58:36.708Z,80.80
2018-11-23T16:02:33.406Z,80.70
2018-11-23T16:06:29.952Z,80.60
2018-11-23T16:10:28.423Z,80.60
2018-11-23T16:14:25.230Z,80.70
2018-11-23T16:18:22.506Z,80.50
2018-11-23T16:22:19.324Z,80.50
2018-11-23T16:26:15.998Z,80.50
2018-11-23T16:30:18.246Z,80.60
2018-11-23T16:34:15.369Z,80.70
2018-11-23T16:38:15.179Z,80.70
2018-11-23T16:42:12.182Z,80.90
2018-11-23T16:46:09.075Z,81.00
2018-11-23T16:50:11.048Z,80.80
2018-11-23T16:54:14.704Z,80.70
2018-11-23T16:58:29.455Z,80.80
2018-11-23T17:06:44.356Z,81.40
2018-11-23T17:10:42.437Z,82.50
2018-11-23T17:14:40.126Z,82.80
2018-11-23T17:18:40.069Z,82.30
2018-11-23T17:22:37.682Z,79.60
2018-11-23T17:26:36.533Z,75.80
2018-11-23T17:30:35.349Z,71.10
2018-11-23T17:34:34.515Z,67.20
2018-11-23T17:38:37.713Z,64.80
2018-11-23T17:42:32.525Z,62.40
2018-11-23T17:46:31.721Z,59.10
2018-11-23T17:50:30.644Z,56.60
2018-11-23T17:54:29.318Z,55.20
2018-11-23T17:58:26.963Z,56.40
2018-11-23T18:02:26.794Z,58.20
2018-11-23T18:06:26.028Z,57.50
2018-11-23T18:10:27.623Z,58.90
2018-11-23T18:14:27.141Z,61.80
2018-11-23T18:18:26.391Z,63.40
2018-11-23T18:22:23.995Z,64.30
2018-11-23T18:26:20.971Z,63.10
2018-11-23T18:30:19.112Z,63.60
2018-11-23T18:34:16.624Z,64.60
2018-11-23T18:38:15.679Z,63.50
2018-11-23T18:42:12.602Z,65.10
2018-11-23T18:46:10.586Z,67.20
2018-11-23T18:50:13.066Z,66.30
2018-11-23T18:54:10.231Z,67.10
2018-11-23T18:58:07.883Z,67.60
2018-11-23T19:02:05.971Z,67.80
2018-11-23T19:06:03.808Z,68.70
2018-11-23T19:10:01.764Z,68.30
2018-11-23T19:13:59.886Z,68.90
2018-11-23T19:17:58.138Z,69.60
2018-11-23T19:21:55.537Z,69.20
2018-11-23T19:25:52.419Z,69.90
2018-11-23T19:29:51.077Z,69.80
2018-11-23T19:33:47.790Z,69.90
2018-11-23T19:37:44.842Z,70.70
2018-11-23T19:41:42.789Z,70.70
2018-11-23T19:45:40.891Z,71.20
2018-11-23T19:49:39.151Z,71.20
2018-11-23T19:53:37.015Z,70.90
2018-11-23T19:57:34.278Z,71.30
2018-11-23T20:01:31.280Z,71.50
2018-11-23T20:05:30.159Z,72.30
2018-11-23T20:09:27.306Z,73.30
2018-11-23T20:13:24.456Z,73.70
2018-11-23T20:17:23.756Z,73.90
2018-11-23T20:21:20.880Z,74.50
2018-11-23T20:25:19.683Z,74.70
2018-11-23T20:29:16.813Z,74.70
2018-11-23T20:33:14.537Z,74.70
2018-11-23T20:37:11.227Z,74.70
2018-11-23T20:41:08.200Z,76.00
2018-11-23T20:45:07.203Z,75.70
2018-11-23T20:49:04.303Z,76.60
2018-11-23T20:53:01.135Z,77.10
2018-11-23T20:56:57.911Z,77.40
2018-11-23T21:00:54.811Z,77.70
2018-11-23T21:04:52.856Z,77.90
2018-11-23T21:08:50.183Z,78.10
2018-11-23T21:12:46.972Z,78.40
2018-11-23T21:16:43.756Z,78.40
2018-11-23T21:20:40.795Z,78.50
2018-11-23T21:24:37.585Z,78.60
2018-11-23T21:28:34.446Z,78.10
2018-11-23T21:32:31.721Z,75.30
2018-11-23T21:36:29.602Z,67.70
2018-11-23T21:40:29.116Z,62.70
2018-11-23T21:44:26.048Z,59.50
2018-11-23T21:48:23.418Z,60.20
2018-11-23T21:52:20.416Z,59.20
2018-11-23T21:56:17.740Z,59.70
2018-11-23T22:00:15.865Z,62.70
2018-11-23T22:04:12.641Z,62.40
2018-11-23T22:08:09.348Z,63.60
2018-11-23T22:12:06.857Z,64.10
2018-11-23T22:16:04.100Z,63.80
2018-11-23T22:20:01.247Z,64.90
2018-11-23T22:24:01.733Z,65.80
2018-11-23T22:27:56.543Z,66.90
2018-11-23T22:31:53.385Z,68.20
2018-11-23T22:35:50.144Z,69.20
2018-11-23T22:39:47.801Z,69.90
2018-11-23T22:43:44.606Z,70.70
2018-11-23T22:47:41.953Z,71.20
2018-11-23T22:51:38.679Z,71.80
2018-11-23T22:55:36.290Z,72.30
2018-11-23T22:59:33.047Z,72.90
2018-11-23T23:03:30.976Z,73.40
2018-11-23T23:07:28.835Z,73.80
2018-11-23T23:11:25.650Z,74.40
2018-11-23T23:15:22.564Z,75.10
2018-11-23T23:19:19.341Z,75.40
2018-11-23T23:23:16.190Z,76.60
2018-11-23T23:27:12.959Z,76.50
2018-11-23T23:31:10.569Z,77.00
2018-11-23T23:35:09.450Z,77.20
2018-11-23T23:39:08.774Z,77.20
2018-11-23T23:43:05.487Z,77.10
2018-11-23T23:47:02.337Z,77.00
2018-11-23T23:50:59.074Z,77.20
2018-11-23T23:54:56.482Z,77.40
2018-11-23T23:58:53.175Z,77.50
